createdAt,value
2023-05-20T00:00:03.515Z,16.28
2023-05-20T00:01:03.590Z,16.21
2023-05-20T00:02:03.424Z,16.12
2023-05-20T00:03:04.719Z,16.17
2023-05-20T00:04:03.650Z,16.09
2023-05-20T00:05:03.376Z,16.10
2023-05-20T00:06:03.261Z,16.13
2023-05-20T00:07:05.678Z,16.10
2023-05-20T00:08:03.160Z,16.02
2023-05-20T00:09:04.253Z,15.98
2023-05-20T00:10:03.077Z,16.00
2023-05-20T00:11:03.036Z,16.03
2023-05-20T00:12:03.049Z,15.96
2023-05-20T00:13:02.992Z,15.92
2023-05-20T00:14:03.078Z,15.96
2023-05-20T00:15:02.862Z,15.84
2023-05-20T00:16:02.911Z,15.87
2023-05-20T00:17:02.771Z,15.90
2023-05-20T00:18:02.926Z,15.87
2023-05-20T00:19:02.988Z,15.81
2023-05-20T00:20:02.701Z,15.69
2023-05-20T00:21:02.612Z,15.70
2023-05-20T00:22:02.712Z,15.80
2023-05-20T00:23:02.515Z,15.73
2023-05-20T00:24:02.525Z,15.70
2023-05-20T00:25:02.713Z,15.73
2023-05-20T00:26:02.536Z,15.73
2023-05-20T00:27:02.337Z,15.72
2023-05-20T00:28:02.298Z,15.73
2023-05-20T00:29:02.256Z,15.66
2023-05-20T00:30:02.363Z,15.67
2023-05-20T00:31:02.212Z,15.66
2023-05-20T00:32:02.461Z,15.69
2023-05-20T00:33:02.173Z,15.66
2023-05-20T00:34:02.037Z,15.62
2023-05-20T00:35:02.002Z,15.59
2023-05-20T00:36:02.203Z,15.59
2023-05-20T00:37:02.056Z,15.50
2023-05-20T00:38:02.011Z,15.51
2023-05-20T00:39:01.820Z,15.45
2023-05-20T00:40:01.775Z,15.48
2023-05-20T00:41:01.726Z,15.39
2023-05-20T00:42:02.860Z,15.37
2023-05-20T00:43:01.681Z,15.30
2023-05-20T00:44:01.848Z,15.25
2023-05-20T00:45:01.552Z,15.18
2023-05-20T00:46:01.531Z,15.19
2023-05-20T00:47:01.468Z,15.14
2023-05-20T00:48:02.547Z,15.23
2023-05-20T00:49:01.410Z,15.17
2023-05-20T00:50:01.714Z,15.25
2023-05-20T00:51:01.345Z,15.18
2023-05-20T00:52:01.263Z,15.08
2023-05-20T00:53:01.302Z,15.05
2023-05-20T00:54:01.167Z,15.10
2023-05-20T00:55:01.316Z,15.00
2023-05-20T00:56:01.093Z,15.05
2023-05-20T00:57:02.358Z,14.93
2023-05-20T00:58:01.001Z,14.93
2023-05-20T00:59:01.138Z,14.92
2023-05-20T01:00:00.894Z,14.93
2023-05-20T01:01:00.976Z,14.94
2023-05-20T01:02:00.816Z,14.96
2023-05-20T01:03:01.247Z,14.96
2023-05-20T01:04:00.725Z,14.87
2023-05-20T01:05:01.794Z,14.93
2023-05-20T01:06:00.637Z,14.93
2023-05-20T01:07:00.797Z,14.93
2023-05-20T01:08:00.576Z,14.92
2023-05-20T01:09:00.600Z,14.89
2023-05-20T01:10:00.459Z,14.87
2023-05-20T01:11:00.628Z,14.81
2023-05-20T01:12:00.438Z,14.78
2023-05-20T01:13:00.639Z,14.79
2023-05-20T01:14:00.287Z,14.81
2023-05-20T01:15:00.241Z,14.77
2023-05-20T01:16:00.264Z,14.81
2023-05-20T01:17:00.245Z,14.73
2023-05-20T01:18:00.168Z,14.68
2023-05-20T01:19:00.292Z,14.66
2023-05-20T01:20:00.050Z,14.63
2023-05-20T01:20:59.973Z,14.66
2023-05-20T01:21:59.945Z,14.58
2023-05-20T01:23:00.099Z,14.58
2023-05-20T01:23:59.845Z,14.56
2023-05-20T01:25:01.126Z,14.51
2023-05-20T01:25:59.765Z,14.48
2023-05-20T01:26:59.734Z,14.33
2023-05-20T01:27:59.922Z,14.41
2023-05-20T01:28:59.631Z,14.30
2023-05-20T01:30:01.786Z,14.25
2023-05-20T01:30:59.609Z,14.18
2023-05-20T01:32:00.563Z,14.05
2023-05-20T01:32:59.503Z,14.07
2023-05-20T01:33:59.555Z,14.01
2023-05-20T01:34:59.365Z,13.98
2023-05-20T01:36:01.404Z,13.87
2023-05-20T01:36:59.413Z,13.86
2023-05-20T01:37:59.379Z,13.95
2023-05-20T01:38:59.184Z,13.94
2023-05-20T01:39:59.388Z,13.83
2023-05-20T01:40:59.093Z,13.83
2023-05-20T01:41:59.200Z,13.85
2023-05-20T01:42:59.030Z,13.91
2023-05-20T01:43:59.218Z,13.83
2023-05-20T01:44:58.922Z,13.80
2023-05-20T01:46:00.049Z,13.70
2023-05-20T01:47:01.374Z,13.62
2023-05-20T01:47:59.097Z,13.73
2023-05-20T01:48:58.747Z,13.62
2023-05-20T01:50:19.695Z,13.62
2023-05-20T01:50:58.672Z,13.54
2023-05-20T01:51:58.861Z,13.50
2023-05-20T01:52:58.571Z,13.52
2023-05-20T01:53:58.698Z,13.40
2023-05-20T01:54:58.683Z,13.49
2023-05-20T01:55:58.443Z,13.45
2023-05-20T01:56:58.391Z,13.43
2023-05-20T01:57:59.534Z,13.36
2023-05-20T01:58:58.305Z,13.45
2023-05-20T01:59:58.518Z,13.30
2023-05-20T02:00:58.235Z,13.33
2023-05-20T02:01:58.339Z,13.37
2023-05-20T02:02:58.145Z,13.33
2023-05-20T02:03:58.337Z,13.39
2023-05-20T02:04:58.034Z,13.31
2023-05-20T02:05:59.318Z,13.33
2023-05-20T02:06:57.943Z,13.37
2023-05-20T02:07:57.899Z,13.36
2023-05-20T02:08:57.861Z,13.30
2023-05-20T02:09:57.832Z,13.27
2023-05-20T02:10:59.010Z,13.27
2023-05-20T02:11:57.723Z,13.27
2023-05-20T02:12:58.819Z,13.23
2023-05-20T02:14:00.104Z,13.19
2023-05-20T02:14:57.590Z,13.23
2023-05-20T02:15:57.899Z,13.17
2023-05-20T02:16:57.794Z,13.05
2023-05-20T02:17:57.626Z,13.11
2023-05-20T02:18:57.432Z,13.09
2023-05-20T02:19:57.367Z,13.13
2023-05-20T02:20:57.320Z,13.12
2023-05-20T02:21:57.471Z,13.12
2023-05-20T02:22:57.522Z,13.06
2023-05-20T02:23:57.468Z,13.01
2023-05-20T02:24:57.145Z,13.03
2023-05-20T02:25:57.097Z,13.02
2023-05-20T02:26:57.078Z,13.03
2023-05-20T02:27:58.112Z,13.05
2023-05-20T02:28:56.964Z,13.11
2023-05-20T02:29:57.115Z,13.05
2023-05-20T02:30:56.878Z,13.09
2023-05-20T02:31:56.843Z,13.01
2023-05-20T02:32:57.158Z,13.03
2023-05-20T02:33:56.796Z,13.03
2023-05-20T02:34:56.957Z,13.01
2023-05-20T02:35:56.657Z,13.06
2023-05-20T02:36:57.779Z,12.99
2023-05-20T02:37:56.566Z,13.01
2023-05-20T02:38:57.782Z,13.03
2023-05-20T02:39:56.478Z,12.93
2023-05-20T02:40:56.577Z,12.93
2023-05-20T02:41:56.456Z,12.91
2023-05-20T02:42:57.624Z,12.91
2023-05-20T02:43:56.297Z,12.83
2023-05-20T02:44:56.284Z,12.87
2023-05-20T02:45:56.430Z,12.86
2023-05-20T02:46:56.170Z,12.84
2023-05-20T02:47:58.273Z,12.98
2023-05-20T02:48:56.076Z,12.93
2023-05-20T02:49:57.341Z,12.94
2023-05-20T02:50:56.284Z,12.99
2023-05-20T02:51:57.077Z,13.08
2023-05-20T02:52:55.911Z,13.08
2023-05-20T02:53:56.059Z,13.16
2023-05-20T02:54:57.909Z,13.16
2023-05-20T02:55:55.832Z,13.16
2023-05-20T02:56:55.866Z,13.26
2023-05-20T02:57:55.713Z,13.33
2023-05-20T02:58:56.920Z,13.31
2023-05-20T02:59:55.625Z,13.36
2023-05-20T03:00:55.552Z,13.33
2023-05-20T03:01:55.586Z,13.26
2023-05-20T03:02:55.514Z,13.36
2023-05-20T03:03:55.812Z,13.47
2023-05-20T03:04:55.485Z,13.46
2023-05-20T03:05:55.522Z,13.47
2023-05-20T03:06:55.535Z,13.47
2023-05-20T03:07:55.233Z,13.58
2023-05-20T03:08:56.365Z,13.61
2023-05-20T03:09:55.150Z,13.58
2023-05-20T03:10:55.355Z,13.70
2023-05-20T03:11:55.052Z,13.62
2023-05-20T03:12:55.004Z,13.68
2023-05-20T03:13:54.981Z,13.70
2023-05-20T03:14:56.204Z,13.79
2023-05-20T03:15:55.054Z,13.80
2023-05-20T03:16:54.992Z,13.87
2023-05-20T03:17:54.860Z,13.80
2023-05-20T03:18:54.800Z,13.79
2023-05-20T03:19:54.883Z,13.82
2023-05-20T03:20:54.720Z,13.83
2023-05-20T03:21:54.839Z,13.83
2023-05-20T03:22:54.569Z,13.89
2023-05-20T03:23:54.628Z,13.87
2023-05-20T03:24:54.472Z,13.85
2023-05-20T03:25:54.668Z,13.91
2023-05-20T03:26:54.751Z,13.97
2023-05-20T03:27:55.480Z,13.91
2023-05-20T03:28:54.298Z,13.87
2023-05-20T03:29:54.247Z,13.89
2023-05-20T03:30:54.233Z,13.87
2023-05-20T03:31:54.311Z,13.91
2023-05-20T03:32:54.167Z,13.91
2023-05-20T03:33:54.507Z,13.95
2023-05-20T03:34:54.026Z,14.00
2023-05-20T03:35:53.988Z,14.03
2023-05-20T03:36:53.953Z,13.87
2023-05-20T03:37:54.131Z,13.86
2023-05-20T03:38:53.884Z,13.85
2023-05-20T03:39:53.824Z,13.89
2023-05-20T03:40:53.942Z,13.82
2023-05-20T03:41:53.947Z,13.89
2023-05-20T03:42:53.680Z,13.91
2023-05-20T03:43:53.759Z,13.83
2023-05-20T03:44:53.584Z,13.78
2023-05-20T03:45:54.997Z,13.91
2023-05-20T03:46:53.529Z,13.95
2023-05-20T03:47:53.508Z,13.93
2023-05-20T03:48:53.601Z,13.89
2023-05-20T03:49:53.384Z,13.95
2023-05-20T03:50:53.597Z,13.91
2023-05-20T03:51:53.305Z,13.79
2023-05-20T03:52:53.516Z,13.94
2023-05-20T03:53:54.336Z,13.87
2023-05-20T03:54:54.418Z,13.94
2023-05-20T03:55:55.377Z,13.80
2023-05-20T03:56:53.060Z,13.85
2023-05-20T03:57:53.162Z,13.93
2023-05-20T03:58:53.199Z,13.87
2023-05-20T03:59:52.926Z,13.89
2023-05-20T04:00:52.874Z,14.01
2023-05-20T04:01:53.008Z,14.04
2023-05-20T04:02:52.949Z,14.01
2023-05-20T04:03:54.044Z,14.04
2023-05-20T04:04:52.698Z,14.15
2023-05-20T04:05:52.649Z,14.07
2023-05-20T04:06:52.792Z,14.18
2023-05-20T04:07:52.636Z,14.16
2023-05-20T04:08:52.816Z,14.25
2023-05-20T04:09:52.474Z,14.28
2023-05-20T04:10:54.673Z,14.38
2023-05-20T04:11:52.384Z,14.36
2023-05-20T04:12:52.657Z,14.33
2023-05-20T04:13:52.310Z,14.43
2023-05-20T04:14:52.465Z,14.36
2023-05-20T04:15:52.213Z,14.44
2023-05-20T04:16:52.520Z,14.43
2023-05-20T04:17:52.151Z,14.45
2023-05-20T04:18:52.311Z,14.52
2023-05-20T04:19:52.072Z,14.55
2023-05-20T04:20:52.025Z,14.61
2023-05-20T04:21:52.103Z,14.52
2023-05-20T04:22:51.924Z,14.61
2023-05-20T04:23:52.099Z,14.55
2023-05-20T04:24:51.812Z,14.67
2023-05-20T04:25:52.114Z,14.63
2023-05-20T04:26:51.726Z,14.71
2023-05-20T04:27:52.950Z,14.74
2023-05-20T04:28:51.670Z,14.77
2023-05-20T04:29:51.735Z,14.79
2023-05-20T04:30:51.549Z,14.79
2023-05-20T04:31:52.809Z,14.77
2023-05-20T04:32:51.471Z,14.90
2023-05-20T04:33:51.564Z,14.86
2023-05-20T04:34:52.588Z,14.96
2023-05-20T04:35:51.333Z,14.89
2023-05-20T04:36:51.596Z,15.08
2023-05-20T04:37:51.264Z,15.07
2023-05-20T04:38:51.404Z,15.05
2023-05-20T04:39:51.165Z,15.07
2023-05-20T04:40:51.107Z,15.10
2023-05-20T04:41:51.226Z,15.12
2023-05-20T04:42:51.035Z,15.14
2023-05-20T04:43:53.490Z,15.19
2023-05-20T04:44:50.934Z,15.25
2023-05-20T04:45:51.066Z,15.29
2023-05-20T04:46:50.872Z,15.26
2023-05-20T04:47:53.443Z,15.33
2023-05-20T04:48:50.760Z,15.39
2023-05-20T04:49:50.864Z,15.39
2023-05-20T04:50:50.676Z,15.47
2023-05-20T04:51:50.883Z,15.50
2023-05-20T04:52:50.711Z,15.50
2023-05-20T04:53:50.621Z,15.47
2023-05-20T04:54:50.699Z,15.54
2023-05-20T04:55:50.523Z,15.52
2023-05-20T04:56:51.527Z,15.57
2023-05-20T04:57:50.377Z,15.60
2023-05-20T04:58:50.326Z,15.57
2023-05-20T04:59:51.753Z,15.59
2023-05-20T05:00:50.240Z,15.62
2023-05-20T05:01:50.404Z,15.66
2023-05-20T05:02:50.208Z,15.63
2023-05-20T05:03:50.351Z,15.60
2023-05-20T05:04:50.076Z,15.57
2023-05-20T05:05:50.366Z,15.62
2023-05-20T05:06:49.999Z,15.60
2023-05-20T05:07:51.198Z,15.65
2023-05-20T05:08:49.926Z,15.60
2023-05-20T05:09:49.856Z,15.72
2023-05-20T05:10:49.828Z,15.70
2023-05-20T05:11:50.209Z,15.69
2023-05-20T05:12:49.728Z,15.78
2023-05-20T05:13:49.862Z,15.69
2023-05-20T05:14:49.634Z,15.81
2023-05-20T05:15:49.623Z,15.87
2023-05-20T05:16:49.551Z,15.92
2023-05-20T05:17:49.907Z,15.94
2023-05-20T05:18:49.524Z,15.99
2023-05-20T05:19:49.676Z,16.17
2023-05-20T05:20:49.389Z,16.08
2023-05-20T05:21:49.333Z,16.18
2023-05-20T05:22:49.310Z,16.25
2023-05-20T05:23:49.682Z,16.28
2023-05-20T05:24:49.206Z,16.32
2023-05-20T05:25:50.307Z,16.41
2023-05-20T05:26:49.175Z,16.43
2023-05-20T05:27:49.072Z,16.39
2023-05-20T05:28:49.037Z,16.57
2023-05-20T05:29:49.363Z,16.54
2023-05-20T05:30:48.976Z,16.66
2023-05-20T05:31:49.194Z,16.61
2023-05-20T05:32:48.962Z,16.74
2023-05-20T05:33:48.822Z,16.76
2023-05-20T05:34:48.772Z,16.82
2023-05-20T05:35:51.205Z,16.82
2023-05-20T05:36:48.690Z,16.95
2023-05-20T05:37:48.964Z,16.92
2023-05-20T05:38:48.597Z,16.94
2023-05-20T05:39:48.558Z,16.98
2023-05-20T05:40:48.679Z,17.05
2023-05-20T05:41:48.503Z,17.07
2023-05-20T05:42:48.632Z,17.07
2023-05-20T05:43:48.543Z,17.05
2023-05-20T05:44:48.505Z,17.14
2023-05-20T05:45:48.350Z,17.12
2023-05-20T05:46:49.378Z,17.27
2023-05-20T05:47:48.405Z,17.22
2023-05-20T05:48:48.327Z,17.30
2023-05-20T05:49:48.137Z,17.37
2023-05-20T05:50:49.374Z,17.38
2023-05-20T05:51:48.067Z,17.44
2023-05-20T05:52:48.150Z,17.54
2023-05-20T05:53:48.084Z,17.52
2023-05-20T05:54:47.964Z,17.66
2023-05-20T05:55:47.873Z,17.71
2023-05-20T05:56:47.837Z,17.66
2023-05-20T05:57:47.798Z,17.72
2023-05-20T05:58:48.810Z,17.79
2023-05-20T05:59:47.700Z,17.73
2023-05-20T06:03:47.500Z,17.90
2023-05-20T06:04:48.455Z,17.87
2023-05-20T06:05:47.329Z,17.86
2023-05-20T06:06:47.433Z,17.86
2023-05-20T06:07:47.218Z,17.88
2023-05-20T06:08:47.166Z,17.80
2023-05-20T06:09:47.250Z,17.78
2023-05-20T06:10:48.407Z,17.87
2023-05-20T06:11:47.074Z,17.91
2023-05-20T06:12:47.060Z,18.00
2023-05-20T06:13:47.088Z,17.98
2023-05-20T06:14:47.104Z,18.12
2023-05-20T06:15:46.865Z,18.03
2023-05-20T06:16:46.903Z,18.09
2023-05-20T06:17:46.833Z,18.18
2023-05-20T06:18:49.201Z,18.11
2023-05-20T06:19:46.715Z,18.08
2023-05-20T06:20:46.645Z,18.11
2023-05-20T06:21:46.722Z,18.18
2023-05-20T06:22:46.585Z,18.24
2023-05-20T06:23:46.544Z,18.37
2023-05-20T06:24:46.555Z,18.39
2023-05-20T06:25:46.442Z,18.48
2023-05-20T06:26:46.390Z,18.46
2023-05-20T06:27:47.404Z,18.53
2023-05-20T06:28:46.317Z,18.53
2023-05-20T06:29:48.650Z,18.45
2023-05-20T06:30:46.232Z,18.53
2023-05-20T06:31:46.388Z,18.66
2023-05-20T06:32:46.186Z,18.64
2023-05-20T06:33:46.199Z,18.60
2023-05-20T06:34:46.097Z,18.66
2023-05-20T06:35:48.060Z,18.53
2023-05-20T06:36:46.040Z,18.63
2023-05-20T06:37:46.014Z,18.71
2023-05-20T06:38:45.893Z,18.79
2023-05-20T06:39:46.211Z,18.63
2023-05-20T06:40:46.917Z,18.76
2023-05-20T06:41:45.860Z,18.76
2023-05-20T06:42:45.732Z,18.67
2023-05-20T06:43:45.696Z,18.71
2023-05-20T06:44:45.647Z,18.74
2023-05-20T06:45:45.672Z,18.88
2023-05-20T06:46:45.739Z,18.98
2023-05-20T06:47:45.750Z,18.83
2023-05-20T06:48:45.795Z,18.91
2023-05-20T06:49:47.410Z,19.01
2023-05-20T06:50:45.402Z,19.08
2023-05-20T06:51:46.652Z,19.15
2023-05-20T06:52:45.348Z,19.27
2023-05-20T06:53:45.433Z,19.38
2023-05-20T06:54:45.239Z,19.42
2023-05-20T06:55:45.198Z,19.44
2023-05-20T06:56:45.248Z,19.32
2023-05-20T06:57:45.309Z,19.34
2023-05-20T06:58:45.285Z,19.19
2023-05-20T06:59:45.130Z,19.12
2023-05-20T07:00:46.294Z,19.08
2023-05-20T07:01:45.053Z,19.16
2023-05-20T07:02:45.168Z,19.19
2023-05-20T07:03:44.937Z,19.22
2023-05-20T07:04:44.990Z,19.09
2023-05-20T07:05:44.786Z,19.19
2023-05-20T07:06:44.782Z,19.19
2023-05-20T07:07:44.700Z,19.34
2023-05-20T07:08:44.738Z,19.29
2023-05-20T07:09:44.624Z,19.48
2023-05-20T07:10:44.733Z,19.53
2023-05-20T07:11:44.588Z,19.59
2023-05-20T07:12:44.527Z,19.49
2023-05-20T07:13:44.461Z,19.56
2023-05-20T07:14:44.464Z,19.52
2023-05-20T07:15:44.400Z,19.55
2023-05-20T07:16:45.491Z,19.48
2023-05-20T07:17:44.324Z,19.56
2023-05-20T07:18:44.381Z,19.60
2023-05-20T07:19:44.237Z,19.60
2023-05-20T07:20:44.302Z,19.60
2023-05-20T07:21:44.126Z,19.44
2023-05-20T07:22:45.335Z,19.55
2023-05-20T07:23:44.198Z,19.53
2023-05-20T07:24:44.052Z,19.47
2023-05-20T07:25:44.026Z,19.52
2023-05-20T07:26:43.930Z,19.48
2023-05-20T07:27:44.044Z,19.49
2023-05-20T07:28:43.843Z,19.38
2023-05-20T07:29:44.048Z,19.22
2023-05-20T07:30:43.752Z,19.29
2023-05-20T07:31:43.911Z,19.35
2023-05-20T07:32:43.703Z,19.37
2023-05-20T07:33:43.889Z,19.35
2023-05-20T07:34:43.587Z,19.32
2023-05-20T07:35:43.581Z,19.32
2023-05-20T07:36:43.504Z,19.41
2023-05-20T07:37:44.948Z,19.48
2023-05-20T07:38:49.997Z,19.29
2023-05-20T07:39:43.387Z,19.27
2023-05-20T07:40:43.528Z,19.23
2023-05-20T07:41:43.353Z,19.20
2023-05-20T07:42:43.268Z,19.15
2023-05-20T07:43:43.275Z,19.16
2023-05-20T07:44:43.392Z,19.17
2023-05-20T07:45:43.193Z,19.11
2023-05-20T07:46:45.239Z,19.16
2023-05-20T07:47:43.080Z,19.26
2023-05-20T07:48:43.087Z,19.24
2023-05-20T07:49:42.989Z,19.26
2023-05-20T07:50:42.989Z,19.16
2023-05-20T07:51:42.914Z,19.16
2023-05-20T07:52:55.299Z,19.27
2023-05-20T07:53:42.840Z,19.35
2023-05-20T07:54:42.803Z,19.47
2023-05-20T07:55:42.725Z,19.60
2023-05-20T07:56:44.883Z,19.70
2023-05-20T07:57:44.163Z,19.74
2023-05-20T07:58:42.841Z,19.67
2023-05-20T07:59:42.602Z,19.66
2023-05-20T08:00:42.648Z,19.85
2023-05-20T08:01:42.516Z,19.87
2023-05-20T08:02:42.765Z,19.99
2023-05-20T08:03:42.470Z,20.03
2023-05-20T08:04:42.705Z,20.10
2023-05-20T08:05:42.324Z,20.10
2023-05-20T08:06:42.491Z,20.22
2023-05-20T08:07:42.325Z,20.27
2023-05-20T08:08:43.318Z,20.39
2023-05-20T08:09:42.161Z,20.36
2023-05-20T08:10:42.307Z,20.32
2023-05-20T08:11:42.081Z,20.37
2023-05-20T08:12:42.128Z,20.36
2023-05-20T08:13:41.988Z,20.44
2023-05-20T08:14:42.139Z,20.40
2023-05-20T08:15:41.909Z,20.55
2023-05-20T08:16:42.192Z,20.42
2023-05-20T08:17:41.895Z,20.33
2023-05-20T08:18:42.022Z,20.36
2023-05-20T08:19:41.751Z,20.37
2023-05-20T08:20:42.794Z,20.39
2023-05-20T08:21:41.663Z,20.15
2023-05-20T08:22:42.817Z,20.04
2023-05-20T08:23:41.633Z,19.82
2023-05-20T08:24:41.793Z,19.79
2023-05-20T08:25:41.512Z,19.70
2023-05-20T08:26:41.608Z,19.79
2023-05-20T08:27:41.463Z,20.04
2023-05-20T08:28:42.882Z,20.19
2023-05-20T08:29:41.334Z,20.36
2023-05-20T08:30:42.502Z,20.44
2023-05-20T08:31:41.314Z,20.70
2023-05-20T08:32:41.476Z,20.88
2023-05-20T08:33:41.172Z,21.03
2023-05-20T08:34:41.165Z,21.25
2023-05-20T08:35:41.266Z,21.29
2023-05-20T08:36:41.048Z,21.37
2023-05-20T08:37:41.008Z,21.41
2023-05-20T08:38:43.331Z,21.23
2023-05-20T08:39:40.933Z,21.25
2023-05-20T08:40:41.094Z,21.17
2023-05-20T08:41:40.846Z,21.20
2023-05-20T08:42:41.932Z,21.25
2023-05-20T08:43:40.773Z,21.23
2023-05-20T08:44:40.926Z,21.29
2023-05-20T08:45:42.067Z,21.33
2023-05-20T08:46:40.769Z,21.30
2023-05-20T08:47:40.655Z,21.44
2023-05-20T08:48:40.742Z,21.47
2023-05-20T08:49:40.534Z,21.47
2023-05-20T08:50:40.759Z,21.40
2023-05-20T08:51:40.449Z,21.29
2023-05-20T08:52:40.571Z,21.32
2023-05-20T08:53:40.381Z,21.17
2023-05-20T08:54:40.368Z,21.28
2023-05-20T08:55:40.292Z,21.14
2023-05-20T08:56:41.417Z,21.04
2023-05-20T08:57:40.220Z,20.92
2023-05-20T08:58:41.439Z,20.93
2023-05-20T08:59:41.490Z,20.89
2023-05-20T09:00:40.229Z,20.85
2023-05-20T09:01:40.284Z,20.75
2023-05-20T09:02:40.064Z,20.66
2023-05-20T09:03:42.335Z,20.64
2023-05-20T09:04:39.993Z,20.37
2023-05-20T09:05:42.105Z,20.49
2023-05-20T09:06:39.980Z,20.56
2023-05-20T09:07:39.870Z,20.58
2023-05-20T09:08:39.773Z,20.56
2023-05-20T09:09:40.089Z,20.52
2023-05-20T09:10:39.716Z,20.44
2023-05-20T09:11:39.945Z,20.52
2023-05-20T09:12:39.612Z,20.48
2023-05-20T09:13:39.623Z,20.46
2023-05-20T09:14:39.579Z,20.42
2023-05-20T09:15:40.740Z,20.53
2023-05-20T09:16:39.589Z,20.37
2023-05-20T09:17:39.595Z,20.32
2023-05-20T09:18:39.643Z,20.32
2023-05-20T09:19:39.359Z,20.33
2023-05-20T09:20:39.283Z,20.36
2023-05-20T09:21:39.377Z,20.33
2023-05-20T09:22:39.197Z,20.39
2023-05-20T09:23:39.375Z,20.48
2023-05-20T09:24:39.143Z,20.33
2023-05-20T09:25:39.240Z,20.36
2023-05-20T09:26:39.235Z,20.33
2023-05-20T09:27:39.022Z,20.34
2023-05-20T09:28:39.399Z,20.26
2023-05-20T09:29:38.915Z,20.33
2023-05-20T09:30:39.007Z,20.29
2023-05-20T09:31:39.070Z,20.33
2023-05-20T09:32:39.075Z,20.32
2023-05-20T09:33:38.752Z,20.36
2023-05-20T09:34:38.830Z,20.37
2023-05-20T09:35:38.677Z,20.34
2023-05-20T09:36:38.849Z,20.34
2023-05-20T09:37:38.600Z,20.34
2023-05-20T09:38:38.863Z,20.44
2023-05-20T09:39:38.583Z,20.42
2023-05-20T09:40:38.672Z,20.52
2023-05-20T09:41:38.523Z,20.55
2023-05-20T09:42:39.525Z,20.55
2023-05-20T09:43:38.340Z,20.60
2023-05-20T09:44:38.495Z,20.63
2023-05-20T09:45:38.258Z,20.75
2023-05-20T09:46:59.810Z,20.83
2023-05-20T09:47:38.200Z,20.86
2023-05-20T09:48:38.353Z,20.70
2023-05-20T09:49:38.139Z,20.77
2023-05-20T09:50:40.385Z,20.88
2023-05-20T09:51:38.069Z,20.82
2023-05-20T09:52:38.148Z,20.78
2023-05-20T09:53:37.934Z,20.77
2023-05-20T09:54:38.977Z,20.71
2023-05-20T09:55:37.993Z,20.89
2023-05-20T09:56:37.973Z,21.04
2023-05-20T09:57:37.784Z,21.00
2023-05-20T09:58:39.213Z,21.20
2023-05-20T09:59:37.684Z,21.33
2023-05-20T10:00:37.814Z,21.51
2023-05-20T10:01:37.709Z,21.70
2023-05-20T10:02:37.971Z,21.89
2023-05-20T10:03:37.670Z,22.14
2023-05-20T10:04:37.642Z,22.40
2023-05-20T10:05:37.467Z,22.55
2023-05-20T10:06:37.636Z,22.71
2023-05-20T10:07:42.148Z,22.62
2023-05-20T10:08:37.444Z,22.58
2023-05-20T10:09:37.296Z,22.56
2023-05-20T10:10:37.713Z,22.58
2023-05-20T10:11:37.280Z,22.59
2023-05-20T10:12:38.301Z,22.53
2023-05-20T10:13:37.324Z,22.26
2023-05-20T10:14:37.113Z,22.26
2023-05-20T10:15:37.507Z,22.21
2023-05-20T10:16:37.017Z,22.26
2023-05-20T10:17:37.145Z,22.19
2023-05-20T10:18:36.954Z,22.15
2023-05-20T10:19:57.919Z,22.14
2023-05-20T10:20:36.867Z,22.16
2023-05-20T10:21:36.928Z,21.85
2023-05-20T10:22:36.785Z,21.88
2023-05-20T10:23:36.954Z,21.88
2023-05-20T10:24:38.085Z,21.88
2023-05-20T10:25:36.967Z,21.97
2023-05-20T10:26:36.711Z,21.99
2023-05-20T10:27:36.774Z,21.83
2023-05-20T10:28:36.572Z,21.83
2023-05-20T10:29:36.783Z,21.69
2023-05-20T10:30:36.854Z,21.38
2023-05-20T10:31:36.597Z,21.19
2023-05-20T10:32:36.460Z,21.07
2023-05-20T10:33:57.515Z,21.07
2023-05-20T10:34:36.344Z,21.17
2023-05-20T10:35:36.420Z,21.13
2023-05-20T10:36:36.231Z,21.22
2023-05-20T10:37:36.438Z,21.29
2023-05-20T10:38:36.147Z,21.32
2023-05-20T10:39:36.238Z,21.28
2023-05-20T10:40:36.534Z,21.25
2023-05-20T10:41:37.283Z,21.35
2023-05-20T10:42:36.007Z,21.28
2023-05-20T10:43:36.067Z,21.44
2023-05-20T10:44:35.922Z,21.63
2023-05-20T10:45:37.108Z,21.66
2023-05-20T10:46:51.444Z,21.70
2023-05-20T10:47:35.887Z,21.63
2023-05-20T10:48:35.998Z,21.89
2023-05-20T10:49:35.729Z,22.00
2023-05-20T10:50:35.884Z,22.14
2023-05-20T10:51:36.743Z,22.47
2023-05-20T10:52:35.767Z,22.80
2023-05-20T10:53:35.734Z,22.93
2023-05-20T10:54:35.518Z,23.10
2023-05-20T10:55:35.744Z,23.28
2023-05-20T10:56:35.438Z,23.58
2023-05-20T10:57:36.587Z,23.73
2023-05-20T10:58:35.366Z,23.82
2023-05-20T10:59:37.421Z,23.85
2023-05-20T11:00:35.654Z,23.94
2023-05-20T11:01:35.500Z,23.96
2023-05-20T11:02:35.288Z,24.00
2023-05-20T11:03:36.762Z,23.96
2023-05-20T11:04:35.370Z,24.04
2023-05-20T11:05:35.224Z,23.74
2023-05-20T11:06:35.086Z,23.56
2023-05-20T11:07:35.249Z,23.47
2023-05-20T11:08:35.077Z,23.18
2023-05-20T11:09:35.287Z,23.08
2023-05-20T11:10:35.272Z,23.07
2023-05-20T11:11:35.042Z,23.04
2023-05-20T11:12:34.853Z,22.95
2023-05-20T11:13:35.057Z,22.84
2023-05-20T11:14:35.958Z,22.88
2023-05-20T11:15:36.923Z,22.98
2023-05-20T11:16:34.708Z,23.29
2023-05-20T11:17:34.904Z,23.62
2023-05-20T11:18:34.593Z,23.89
2023-05-20T11:19:34.800Z,24.06
2023-05-20T11:20:34.716Z,24.28
2023-05-20T11:21:35.740Z,24.63
2023-05-20T11:22:34.434Z,24.68
2023-05-20T11:23:34.526Z,24.85
2023-05-20T11:24:34.357Z,24.85
2023-05-20T11:25:35.556Z,24.77
2023-05-20T11:26:35.773Z,24.84
2023-05-20T11:27:34.253Z,24.71
2023-05-20T11:28:35.376Z,24.68
2023-05-20T11:29:34.175Z,24.41
2023-05-20T11:30:34.527Z,24.44
2023-05-20T11:31:34.160Z,24.31
2023-05-20T11:32:34.277Z,24.29
2023-05-20T11:33:34.181Z,24.16
2023-05-20T11:34:33.995Z,24.07
2023-05-20T11:35:55.093Z,24.01
2023-05-20T11:36:33.927Z,24.01
2023-05-20T11:37:34.014Z,24.00
2023-05-20T11:38:36.268Z,24.04
2023-05-20T11:39:33.829Z,24.09
2023-05-20T11:40:46.282Z,24.28
2023-05-20T11:41:33.743Z,24.34
2023-05-20T11:42:34.040Z,24.28
2023-05-20T11:43:33.644Z,24.09
2023-05-20T11:44:33.623Z,24.16
2023-05-20T11:45:33.867Z,24.14
2023-05-20T11:46:33.592Z,24.28
2023-05-20T11:47:33.686Z,24.24
2023-05-20T11:48:33.452Z,24.22
2023-05-20T11:49:34.727Z,24.16
2023-05-20T11:50:33.877Z,23.88
2023-05-20T11:51:33.346Z,23.58
2023-05-20T11:52:35.153Z,23.70
2023-05-20T11:53:33.261Z,23.71
2023-05-20T11:54:33.523Z,23.77
2023-05-20T11:55:33.210Z,23.88
2023-05-20T11:56:54.429Z,24.00
2023-05-20T11:57:33.116Z,24.06
2023-05-20T11:58:33.546Z,23.96
2023-05-20T11:59:33.038Z,23.96
2023-05-20T12:00:49.407Z,23.91
2023-05-20T12:01:33.161Z,23.77
2023-05-20T12:02:33.010Z,23.88
2023-05-20T12:03:33.179Z,23.74
2023-05-20T12:04:33.020Z,23.81
2023-05-20T12:05:32.808Z,23.74
2023-05-20T12:06:32.890Z,23.62
2023-05-20T12:07:32.731Z,23.77
2023-05-20T12:08:32.902Z,23.81
2023-05-20T12:09:32.971Z,23.58
2023-05-20T12:10:34.248Z,23.56
2023-05-20T12:11:32.567Z,23.62
2023-05-20T12:12:32.738Z,23.58
2023-05-20T12:13:34.999Z,23.52
2023-05-20T12:14:32.951Z,23.58
2023-05-20T12:15:32.549Z,23.36
2023-05-20T12:16:32.405Z,23.23
2023-05-20T12:17:32.634Z,23.16
2023-05-20T12:18:32.308Z,23.11
2023-05-20T12:19:34.442Z,23.04
2023-05-20T12:20:32.459Z,22.89
2023-05-20T12:21:32.279Z,22.63
2023-05-20T12:22:33.445Z,22.55
2023-05-20T12:23:32.106Z,22.40
2023-05-20T12:24:32.214Z,22.25
2023-05-20T12:25:32.100Z,22.18
2023-05-20T12:26:33.252Z,22.18
2023-05-20T12:27:33.454Z,21.96
2023-05-20T12:28:31.917Z,21.94
2023-05-20T12:29:33.136Z,21.99
2023-05-20T12:30:31.928Z,21.88
2023-05-20T12:31:33.940Z,21.75
2023-05-20T12:32:31.788Z,21.68
2023-05-20T12:33:32.068Z,21.65
2023-05-20T12:34:31.676Z,21.70
2023-05-20T12:35:33.920Z,21.58
2023-05-20T12:36:31.641Z,21.70
2023-05-20T12:37:34.855Z,21.81
2023-05-20T12:38:31.615Z,21.89
2023-05-20T12:39:31.905Z,22.03
2023-05-20T12:40:31.754Z,22.15
2023-05-20T12:41:31.396Z,22.28
2023-05-20T12:42:31.510Z,22.40
2023-05-20T12:43:31.325Z,22.52
2023-05-20T12:44:31.645Z,22.52
2023-05-20T12:45:31.374Z,22.65
2023-05-20T12:46:31.240Z,22.88
2023-05-20T12:47:31.362Z,22.96
2023-05-20T12:48:31.120Z,22.93
2023-05-20T12:49:31.361Z,22.99
2023-05-20T12:50:31.040Z,23.10
2023-05-20T12:51:33.224Z,23.01
2023-05-20T12:52:52.277Z,22.84
2023-05-20T12:53:31.234Z,22.81
2023-05-20T12:54:31.212Z,22.74